Ritzville, Washington
Current Conditions -  °F | °C
As of 8:52 AM on Friday 24 Oct 2014 (Local Time) from KMWH Reporting Station
Overcast Overcast  
Wind Chill: 43°   Ceiling: 15000
Heat Index: 43°   Visibility: 10mi
Dew Point: 40°   Wind: 3mph
Humidity: 89%   Direction: 20°NNE
Pressure: 30.08"   Gusts: NA
Location:  47.13°N, 118.38°W
Report Text: KMWH 241552Z 02003KT 10SM FEW110 OVC150 06/04 A3008 RMK AO2 SLP240 T00610044
Loading
Personal Weather Stations






























Interactive Weather Map
Tropical Storm Tracking
New forecast layout! Learn more

10-Day Weather Forecast

Advertisements
Track Severe Weather on mobile